sensor_id;sensor_type;location;lat;lon;timestamp;temperature;humidity
81321;DHT22;70785;52.570;5.638;2023-07-29T00:00:58;17.90;73.10
81321;DHT22;70785;52.570;5.638;2023-07-29T00:03:24;17.90;73.10
81321;DHT22;70785;52.570;5.638;2023-07-29T00:05:50;17.90;73.10
81321;DHT22;70785;52.570;5.638;2023-07-29T00:08:16;17.80;73.10
81321;DHT22;70785;52.570;5.638;2023-07-29T00:10:42;17.90;73.00
81321;DHT22;70785;52.570;5.638;2023-07-29T00:13:11;17.80;73.00
81321;DHT22;70785;52.570;5.638;2023-07-29T00:15:37;17.80;73.00
81321;DHT22;70785;52.570;5.638;2023-07-29T00:18:03;17.80;73.00
81321;DHT22;70785;52.570;5.638;2023-07-29T00:20:29;17.80;73.10
81321;DHT22;70785;52.570;5.638;2023-07-29T00:22:55;17.80;73.10
81321;DHT22;70785;52.570;5.638;2023-07-29T00:25:23;17.80;73.10
81321;DHT22;70785;52.570;5.638;2023-07-29T00:27:50;17.80;73.20
81321;DHT22;70785;52.570;5.638;2023-07-29T00:30:16;17.60;73.20
81321;DHT22;70785;52.570;5.638;2023-07-29T00:32:42;17.60;73.30
81321;DHT22;70785;52.570;5.638;2023-07-29T00:35:08;17.50;73.30
81321;DHT22;70785;52.570;5.638;2023-07-29T00:37:34;17.50;73.30
81321;DHT22;70785;52.570;5.638;2023-07-29T00:40:00;17.50;73.30
81321;DHT22;70785;52.570;5.638;2023-07-29T00:42:27;17.50;73.30
81321;DHT22;70785;52.570;5.638;2023-07-29T00:44:53;17.50;73.30
81321;DHT22;70785;52.570;5.638;2023-07-29T00:47:20;17.50;73.20
81321;DHT22;70785;52.570;5.638;2023-07-29T00:49:50;17.50;73.30
81321;DHT22;70785;52.570;5.638;2023-07-29T00:52:16;17.40;73.30
81321;DHT22;70785;52.570;5.638;2023-07-29T00:54:42;17.40;73.30
81321;DHT22;70785;52.570;5.638;2023-07-29T00:57:09;17.40;73.30
81321;DHT22;70785;52.570;5.638;2023-07-29T00:59:37;17.40;73.30
81321;DHT22;70785;52.570;5.638;2023-07-29T01:02:04;17.30;73.30
81321;DHT22;70785;52.570;5.638;2023-07-29T01:04:31;17.20;73.30
81321;DHT22;70785;52.570;5.638;2023-07-29T01:07:14;17.30;73.30
81321;DHT22;70785;52.570;5.638;2023-07-29T01:09:59;17.20;73.30
81321;DHT22;70785;52.570;5.638;2023-07-29T01:15:14;17.30;73.20
81321;DHT22;70785;52.570;5.638;2023-07-29T01:17:46;17.30;73.20
81321;DHT22;70785;52.570;5.638;2023-07-29T01:20:17;17.40;73.10
81321;DHT22;70785;52.570;5.638;2023-07-29T01:22:46;17.40;73.00
81321;DHT22;70785;52.570;5.638;2023-07-29T01:25:13;17.40;72.90
81321;DHT22;70785;52.570;5.638;2023-07-29T01:27:41;17.40;72.80
81321;DHT22;70785;52.570;5.638;2023-07-29T01:30:08;17.50;72.70
81321;DHT22;70785;52.570;5.638;2023-07-29T01:35:27;17.50;72.40
81321;DHT22;70785;52.570;5.638;2023-07-29T01:38:08;17.60;72.20
81321;DHT22;70785;52.570;5.638;2023-07-29T01:40:35;17.60;72.20
81321;DHT22;70785;52.570;5.638;2023-07-29T01:43:01;17.60;72.10
81321;DHT22;70785;52.570;5.638;2023-07-29T01:45:28;17.60;72.10
81321;DHT22;70785;52.570;5.638;2023-07-29T01:47:57;17.60;72.10
81321;DHT22;70785;52.570;5.638;2023-07-29T01:50:23;17.60;72.10
81321;DHT22;70785;52.570;5.638;2023-07-29T01:52:50;17.60;72.00
81321;DHT22;70785;52.570;5.638;2023-07-29T01:55:17;17.60;72.00
81321;DHT22;70785;52.570;5.638;2023-07-29T01:57:43;17.70;71.90
81321;DHT22;70785;52.570;5.638;2023-07-29T02:00:11;17.70;71.80
81321;DHT22;70785;52.570;5.638;2023-07-29T02:02:44;17.70;71.80
81321;DHT22;70785;52.570;5.638;2023-07-29T02:05:10;17.70;71.70
81321;DHT22;70785;52.570;5.638;2023-07-29T02:07:37;17.80;71.70
81321;DHT22;70785;52.570;5.638;2023-07-29T02:10:03;17.70;71.60
81321;DHT22;70785;52.570;5.638;2023-07-29T02:12:29;17.80;71.50
81321;DHT22;70785;52.570;5.638;2023-07-29T02:14:55;17.80;71.40
81321;DHT22;70785;52.570;5.638;2023-07-29T02:17:21;17.80;71.40
81321;DHT22;70785;52.570;5.638;2023-07-29T02:19:47;17.80;71.30
81321;DHT22;70785;52.570;5.638;2023-07-29T02:22:15;17.80;71.20
81321;DHT22;70785;52.570;5.638;2023-07-29T02:24:41;17.80;71.20
81321;DHT22;70785;52.570;5.638;2023-07-29T02:27:07;17.80;71.20
81321;DHT22;70785;52.570;5.638;2023-07-29T02:29:34;17.80;71.20
81321;DHT22;70785;52.570;5.638;2023-07-29T02:32:00;17.80;71.10
81321;DHT22;70785;52.570;5.638;2023-07-29T02:34:26;17.70;71.10
81321;DHT22;70785;52.570;5.638;2023-07-29T02:36:52;17.80;71.10
81321;DHT22;70785;52.570;5.638;2023-07-29T02:39:19;17.70;71.10
81321;DHT22;70785;52.570;5.638;2023-07-29T02:41:45;17.70;71.10
81321;DHT22;70785;52.570;5.638;2023-07-29T02:44:11;17.70;71.10
81321;DHT22;70785;52.570;5.638;2023-07-29T02:46:37;17.70;71.20
81321;DHT22;70785;52.570;5.638;2023-07-29T02:49:04;17.60;71.10
81321;DHT22;70785;52.570;5.638;2023-07-29T02:51:30;17.60;71.20
81321;DHT22;70785;52.570;5.638;2023-07-29T02:53:57;17.60;71.20
81321;DHT22;70785;52.570;5.638;2023-07-29T02:56:23;17.50;71.20
81321;DHT22;70785;52.570;5.638;2023-07-29T02:58:49;17.50;71.20
81321;DHT22;70785;52.570;5.638;2023-07-29T03:01:17;17.50;71.30
81321;DHT22;70785;52.570;5.638;2023-07-29T03:03:43;17.50;71.40
81321;DHT22;70785;52.570;5.638;2023-07-29T03:06:12;17.50;71.40
81321;DHT22;70785;52.570;5.638;2023-07-29T03:08:38;17.40;71.40
81321;DHT22;70785;52.570;5.638;2023-07-29T03:11:09;17.40;71.50
81321;DHT22;70785;52.570;5.638;2023-07-29T03:13:37;17.40;71.50
81321;DHT22;70785;52.570;5.638;2023-07-29T03:16:11;17.40;71.50
81321;DHT22;70785;52.570;5.638;2023-07-29T03:18:39;17.30;71.60
81321;DHT22;70785;52.570;5.638;2023-07-29T03:21:05;17.40;71.50
81321;DHT22;70785;52.570;5.638;2023-07-29T03:23:32;17.30;71.50
81321;DHT22;70785;52.570;5.638;2023-07-29T03:26:00;17.30;71.50
81321;DHT22;70785;52.570;5.638;2023-07-29T03:28:27;17.40;71.50
81321;DHT22;70785;52.570;5.638;2023-07-29T03:30:57;17.40;71.50
81321;DHT22;70785;52.570;5.638;2023-07-29T03:33:24;17.40;71.50
81321;DHT22;70785;52.570;5.638;2023-07-29T03:35:52;17.30;71.50
81321;DHT22;70785;52.570;5.638;2023-07-29T03:38:18;17.30;71.60
81321;DHT22;70785;52.570;5.638;2023-07-29T03:40:44;17.20;71.70
81321;DHT22;70785;52.570;5.638;2023-07-29T03:43:10;17.20;71.80
81321;DHT22;70785;52.570;5.638;2023-07-29T03:45:37;17.20;71.90
81321;DHT22;70785;52.570;5.638;2023-07-29T03:48:04;17.10;71.90
81321;DHT22;70785;52.570;5.638;2023-07-29T03:50:30;17.00;72.00
81321;DHT22;70785;52.570;5.638;2023-07-29T03:52:57;17.00;72.10
81321;DHT22;70785;52.570;5.638;2023-07-29T03:55:23;17.00;72.10
81321;DHT22;70785;52.570;5.638;2023-07-29T03:57:49;17.00;72.20
81321;DHT22;70785;52.570;5.638;2023-07-29T04:00:15;16.90;72.30
81321;DHT22;70785;52.570;5.638;2023-07-29T04:02:42;16.90;72.50
81321;DHT22;70785;52.570;5.638;2023-07-29T04:05:10;16.90;72.50
81321;DHT22;70785;52.570;5.638;2023-07-29T04:07:37;16.80;72.60
81321;DHT22;70785;52.570;5.638;2023-07-29T04:10:04;16.80;72.70
81321;DHT22;70785;52.570;5.638;2023-07-29T04:12:31;16.80;72.70
81321;DHT22;70785;52.570;5.638;2023-07-29T04:14:57;16.80;72.80
81321;DHT22;70785;52.570;5.638;2023-07-29T04:17:23;16.70;72.90
81321;DHT22;70785;52.570;5.638;2023-07-29T04:19:49;16.70;73.00
81321;DHT22;70785;52.570;5.638;2023-07-29T04:22:16;16.70;73.00
81321;DHT22;70785;52.570;5.638;2023-07-29T04:24:43;16.70;73.10
81321;DHT22;70785;52.570;5.638;2023-07-29T04:27:09;16.70;73.20
81321;DHT22;70785;52.570;5.638;2023-07-29T04:29:35;16.70;73.20
81321;DHT22;70785;52.570;5.638;2023-07-29T04:32:03;16.70;73.30
81321;DHT22;70785;52.570;5.638;2023-07-29T04:34:29;16.70;73.30
81321;DHT22;70785;52.570;5.638;2023-07-29T04:36:55;16.70;73.30
81321;DHT22;70785;52.570;5.638;2023-07-29T04:39:21;16.70;73.40
81321;DHT22;70785;52.570;5.638;2023-07-29T04:41:47;16.70;73.50
81321;DHT22;70785;52.570;5.638;2023-07-29T04:44:14;16.70;73.50
81321;DHT22;70785;52.570;5.638;2023-07-29T04:46:40;16.70;73.60
81321;DHT22;70785;52.570;5.638;2023-07-29T04:49:07;16.70;73.70
81321;DHT22;70785;52.570;5.638;2023-07-29T04:51:33;16.70;73.70
81321;DHT22;70785;52.570;5.638;2023-07-29T04:53:59;16.70;73.70
81321;DHT22;70785;52.570;5.638;2023-07-29T04:56:25;16.70;73.80
81321;DHT22;70785;52.570;5.638;2023-07-29T04:58:52;16.80;73.80
81321;DHT22;70785;52.570;5.638;2023-07-29T05:01:18;16.80;73.80
81321;DHT22;70785;52.570;5.638;2023-07-29T05:03:44;16.80;73.80
81321;DHT22;70785;52.570;5.638;2023-07-29T05:06:12;16.80;73.80
81321;DHT22;70785;52.570;5.638;2023-07-29T05:08:38;16.90;73.80
81321;DHT22;70785;52.570;5.638;2023-07-29T05:11:04;17.00;73.70
81321;DHT22;70785;52.570;5.638;2023-07-29T05:13:30;17.00;73.70
81321;DHT22;70785;52.570;5.638;2023-07-29T05:15:56;17.00;73.60
81321;DHT22;70785;52.570;5.638;2023-07-29T05:18:22;17.00;73.60
81321;DHT22;70785;52.570;5.638;2023-07-29T05:20:49;17.10;73.50
81321;DHT22;70785;52.570;5.638;2023-07-29T05:23:15;17.10;73.50
81321;DHT22;70785;52.570;5.638;2023-07-29T05:25:42;17.10;73.40
81321;DHT22;70785;52.570;5.638;2023-07-29T05:28:08;17.20;73.40
81321;DHT22;70785;52.570;5.638;2023-07-29T05:30:35;17.20;73.40
81321;DHT22;70785;52.570;5.638;2023-07-29T05:33:06;17.20;73.40
81321;DHT22;70785;52.570;5.638;2023-07-29T05:35:34;17.30;73.40
81321;DHT22;70785;52.570;5.638;2023-07-29T05:38:00;17.40;73.40
81321;DHT22;70785;52.570;5.638;2023-07-29T05:40:26;17.50;73.20
81321;DHT22;70785;52.570;5.638;2023-07-29T05:42:52;17.50;73.00
81321;DHT22;70785;52.570;5.638;2023-07-29T05:45:18;17.70;72.90
81321;DHT22;70785;52.570;5.638;2023-07-29T05:47:45;17.80;72.70
81321;DHT22;70785;52.570;5.638;2023-07-29T05:50:11;18.00;72.60
81321;DHT22;70785;52.570;5.638;2023-07-29T05:52:37;18.00;72.40
81321;DHT22;70785;52.570;5.638;2023-07-29T05:55:04;18.10;72.30
81321;DHT22;70785;52.570;5.638;2023-07-29T05:57:31;18.10;72.20
81321;DHT22;70785;52.570;5.638;2023-07-29T05:59:57;18.10;72.20
81321;DHT22;70785;52.570;5.638;2023-07-29T06:02:23;18.20;72.20
81321;DHT22;70785;52.570;5.638;2023-07-29T06:04:49;18.20;72.10
81321;DHT22;70785;52.570;5.638;2023-07-29T06:07:15;18.20;72.00
81321;DHT22;70785;52.570;5.638;2023-07-29T06:09:41;18.30;71.90
81321;DHT22;70785;52.570;5.638;2023-07-29T06:12:08;18.50;71.70
81321;DHT22;70785;52.570;5.638;2023-07-29T06:14:34;18.50;71.40
81321;DHT22;70785;52.570;5.638;2023-07-29T06:17:00;18.50;71.40
81321;DHT22;70785;52.570;5.638;2023-07-29T06:19:26;18.50;71.40
81321;DHT22;70785;52.570;5.638;2023-07-29T06:21:55;18.60;71.30
81321;DHT22;70785;52.570;5.638;2023-07-29T06:24:21;18.60;71.20
81321;DHT22;70785;52.570;5.638;2023-07-29T06:26:47;18.60;71.10
81321;DHT22;70785;52.570;5.638;2023-07-29T06:29:13;18.60;71.20
81321;DHT22;70785;52.570;5.638;2023-07-29T06:31:39;18.60;71.20
81321;DHT22;70785;52.570;5.638;2023-07-29T06:34:05;18.50;71.30
81321;DHT22;70785;52.570;5.638;2023-07-29T06:36:31;18.50;71.40
81321;DHT22;70785;52.570;5.638;2023-07-29T06:38:57;18.60;71.40
81321;DHT22;70785;52.570;5.638;2023-07-29T06:41:24;18.70;71.30
81321;DHT22;70785;52.570;5.638;2023-07-29T06:43:50;18.70;71.20
81321;DHT22;70785;52.570;5.638;2023-07-29T06:46:16;18.90;71.10
81321;DHT22;70785;52.570;5.638;2023-07-29T06:48:42;19.10;70.80
81321;DHT22;70785;52.570;5.638;2023-07-29T06:51:08;19.40;70.60
81321;DHT22;70785;52.570;5.638;2023-07-29T06:53:34;19.50;70.30
81321;DHT22;70785;52.570;5.638;2023-07-29T06:56:00;19.50;70.20
81321;DHT22;70785;52.570;5.638;2023-07-29T06:58:26;19.50;70.10
81321;DHT22;70785;52.570;5.638;2023-07-29T07:00:52;19.60;70.00
81321;DHT22;70785;52.570;5.638;2023-07-29T07:03:18;19.60;69.90
81321;DHT22;70785;52.570;5.638;2023-07-29T07:05:44;19.70;69.90
81321;DHT22;70785;52.570;5.638;2023-07-29T07:08:11;19.70;69.80
81321;DHT22;70785;52.570;5.638;2023-07-29T07:10:37;19.70;69.80
81321;DHT22;70785;52.570;5.638;2023-07-29T07:13:03;19.70;69.70
81321;DHT22;70785;52.570;5.638;2023-07-29T07:15:29;19.80;69.50
81321;DHT22;70785;52.570;5.638;2023-07-29T07:17:55;19.80;69.40
81321;DHT22;70785;52.570;5.638;2023-07-29T07:20:21;19.90;69.30
81321;DHT22;70785;52.570;5.638;2023-07-29T07:22:47;20.00;69.00
81321;DHT22;70785;52.570;5.638;2023-07-29T07:25:14;20.00;68.80
81321;DHT22;70785;52.570;5.638;2023-07-29T07:27:40;20.00;68.60
81321;DHT22;70785;52.570;5.638;2023-07-29T07:30:06;20.20;68.40
81321;DHT22;70785;52.570;5.638;2023-07-29T07:32:32;20.30;68.20
81321;DHT22;70785;52.570;5.638;2023-07-29T07:34:58;20.30;68.20
81321;DHT22;70785;52.570;5.638;2023-07-29T07:37:25;20.30;68.20
81321;DHT22;70785;52.570;5.638;2023-07-29T07:39:51;20.30;68.30
81321;DHT22;70785;52.570;5.638;2023-07-29T07:42:17;20.30;68.30
81321;DHT22;70785;52.570;5.638;2023-07-29T07:44:43;20.30;68.30
81321;DHT22;70785;52.570;5.638;2023-07-29T07:47:09;20.40;68.10
81321;DHT22;70785;52.570;5.638;2023-07-29T07:49:35;20.40;68.00
81321;DHT22;70785;52.570;5.638;2023-07-29T07:52:01;20.30;68.10
81321;DHT22;70785;52.570;5.638;2023-07-29T07:54:27;20.30;68.20
81321;DHT22;70785;52.570;5.638;2023-07-29T07:56:53;20.30;68.20
81321;DHT22;70785;52.570;5.638;2023-07-29T07:59:19;20.50;68.00
81321;DHT22;70785;52.570;5.638;2023-07-29T08:01:45;20.60;67.90
81321;DHT22;70785;52.570;5.638;2023-07-29T08:04:12;20.70;67.70
81321;DHT22;70785;52.570;5.638;2023-07-29T08:06:38;20.80;67.50
81321;DHT22;70785;52.570;5.638;2023-07-29T08:09:05;20.90;67.20
81321;DHT22;70785;52.570;5.638;2023-07-29T08:11:31;20.90;67.00
81321;DHT22;70785;52.570;5.638;2023-07-29T08:13:58;20.90;66.90
81321;DHT22;70785;52.570;5.638;2023-07-29T08:16:24;20.90;66.90
81321;DHT22;70785;52.570;5.638;2023-07-29T08:18:50;20.90;66.80
81321;DHT22;70785;52.570;5.638;2023-07-29T08:21:16;21.10;66.70
81321;DHT22;70785;52.570;5.638;2023-07-29T08:23:42;21.10;66.60
81321;DHT22;70785;52.570;5.638;2023-07-29T08:26:08;21.20;66.50
81321;DHT22;70785;52.570;5.638;2023-07-29T08:28:36;21.10;66.30
81321;DHT22;70785;52.570;5.638;2023-07-29T08:31:03;21.10;66.40
81321;DHT22;70785;52.570;5.638;2023-07-29T08:33:30;21.20;66.50
81321;DHT22;70785;52.570;5.638;2023-07-29T08:35:56;21.40;66.20
81321;DHT22;70785;52.570;5.638;2023-07-29T08:38:22;21.50;66.00
81321;DHT22;70785;52.570;5.638;2023-07-29T08:40:54;21.50;65.90
81321;DHT22;70785;52.570;5.638;2023-07-29T08:43:31;21.50;65.90
81321;DHT22;70785;52.570;5.638;2023-07-29T08:45:58;21.70;65.70
81321;DHT22;70785;52.570;5.638;2023-07-29T08:48:41;21.90;65.50
81321;DHT22;70785;52.570;5.638;2023-07-29T08:51:11;21.90;65.30
81321;DHT22;70785;52.570;5.638;2023-07-29T08:53:38;21.90;65.40
81321;DHT22;70785;52.570;5.638;2023-07-29T08:56:05;21.90;65.50
81321;DHT22;70785;52.570;5.638;2023-07-29T08:58:31;22.00;65.10
81321;DHT22;70785;52.570;5.638;2023-07-29T09:00:58;21.90;65.00
81321;DHT22;70785;52.570;5.638;2023-07-29T09:03:24;21.70;65.00
81321;DHT22;70785;52.570;5.638;2023-07-29T09:05:50;21.60;65.10
81321;DHT22;70785;52.570;5.638;2023-07-29T09:08:16;21.40;65.20
81321;DHT22;70785;52.570;5.638;2023-07-29T09:10:43;21.10;65.60
81321;DHT22;70785;52.570;5.638;2023-07-29T09:13:09;20.90;66.30
81321;DHT22;70785;52.570;5.638;2023-07-29T09:15:36;20.70;66.90
81321;DHT22;70785;52.570;5.638;2023-07-29T09:18:16;20.50;67.70
81321;DHT22;70785;52.570;5.638;2023-07-29T09:20:42;20.30;68.30
81321;DHT22;70785;52.570;5.638;2023-07-29T09:23:10;20.30;68.40
81321;DHT22;70785;52.570;5.638;2023-07-29T09:25:37;20.50;68.40
81321;DHT22;70785;52.570;5.638;2023-07-29T09:28:11;20.60;68.20
81321;DHT22;70785;52.570;5.638;2023-07-29T09:30:39;20.60;67.70
81321;DHT22;70785;52.570;5.638;2023-07-29T09:33:05;20.60;67.60
81321;DHT22;70785;52.570;5.638;2023-07-29T09:35:36;20.80;67.50
81321;DHT22;70785;52.570;5.638;2023-07-29T09:38:03;21.00;67.30
81321;DHT22;70785;52.570;5.638;2023-07-29T09:40:37;21.30;66.80
81321;DHT22;70785;52.570;5.638;2023-07-29T09:43:05;21.50;66.00
81321;DHT22;70785;52.570;5.638;2023-07-29T09:45:34;21.60;65.30
81321;DHT22;70785;52.570;5.638;2023-07-29T09:48:00;21.70;65.20
81321;DHT22;70785;52.570;5.638;2023-07-29T09:50:27;21.70;65.00
81321;DHT22;70785;52.570;5.638;2023-07-29T09:52:54;21.70;64.90
81321;DHT22;70785;52.570;5.638;2023-07-29T09:55:24;21.50;65.30
81321;DHT22;70785;52.570;5.638;2023-07-29T09:58:00;21.30;65.80
81321;DHT22;70785;52.570;5.638;2023-07-29T10:00:28;21.20;65.70
81321;DHT22;70785;52.570;5.638;2023-07-29T10:02:55;21.20;65.40
81321;DHT22;70785;52.570;5.638;2023-07-29T10:05:24;21.20;64.70
81321;DHT22;70785;52.570;5.638;2023-07-29T10:07:51;21.10;64.30
81321;DHT22;70785;52.570;5.638;2023-07-29T10:10:18;21.00;64.50
81321;DHT22;70785;52.570;5.638;2023-07-29T10:12:44;20.90;64.50
81321;DHT22;70785;52.570;5.638;2023-07-29T10:15:10;20.80;64.70
81321;DHT22;70785;52.570;5.638;2023-07-29T10:17:38;20.70;64.90
81321;DHT22;70785;52.570;5.638;2023-07-29T10:20:06;20.60;65.00
81321;DHT22;70785;52.570;5.638;2023-07-29T10:22:39;20.50;64.90
81321;DHT22;70785;52.570;5.638;2023-07-29T10:25:18;20.50;65.00
81321;DHT22;70785;52.570;5.638;2023-07-29T10:30:16;20.30;65.40
81321;DHT22;70785;52.570;5.638;2023-07-29T10:32:43;20.30;65.50
81321;DHT22;70785;52.570;5.638;2023-07-29T10:35:14;20.50;65.50
81321;DHT22;70785;52.570;5.638;2023-07-29T10:37:40;20.80;65.40
81321;DHT22;70785;52.570;5.638;2023-07-29T10:40:08;21.10;65.20
81321;DHT22;70785;52.570;5.638;2023-07-29T10:42:36;21.30;65.00
81321;DHT22;70785;52.570;5.638;2023-07-29T10:45:20;21.50;64.70
81321;DHT22;70785;52.570;5.638;2023-07-29T10:47:47;21.50;64.50
81321;DHT22;70785;52.570;5.638;2023-07-29T10:50:21;21.50;64.40
81321;DHT22;70785;52.570;5.638;2023-07-29T10:52:52;21.70;64.10
81321;DHT22;70785;52.570;5.638;2023-07-29T10:55:29;21.70;63.90
81321;DHT22;70785;52.570;5.638;2023-07-29T10:58:12;21.70;63.30
81321;DHT22;70785;52.570;5.638;2023-07-29T11:00:41;22.00;63.40
81321;DHT22;70785;52.570;5.638;2023-07-29T11:03:08;22.20;63.00
81321;DHT22;70785;52.570;5.638;2023-07-29T11:05:51;22.30;63.00
81321;DHT22;70785;52.570;5.638;2023-07-29T11:08:22;22.20;62.10
81321;DHT22;70785;52.570;5.638;2023-07-29T11:11:07;22.30;62.20
81321;DHT22;70785;52.570;5.638;2023-07-29T11:13:35;22.50;61.70
81321;DHT22;70785;52.570;5.638;2023-07-29T11:16:02;22.30;61.40
81321;DHT22;70785;52.570;5.638;2023-07-29T11:18:31;22.20;61.60
81321;DHT22;70785;52.570;5.638;2023-07-29T11:20:58;22.30;61.50
81321;DHT22;70785;52.570;5.638;2023-07-29T11:23:29;22.50;61.70
81321;DHT22;70785;52.570;5.638;2023-07-29T11:25:56;22.50;61.70
81321;DHT22;70785;52.570;5.638;2023-07-29T11:28:22;22.50;61.40
81321;DHT22;70785;52.570;5.638;2023-07-29T11:30:50;22.30;61.60
81321;DHT22;70785;52.570;5.638;2023-07-29T11:33:21;22.20;61.60
81321;DHT22;70785;52.570;5.638;2023-07-29T11:35:48;22.20;61.90
81321;DHT22;70785;52.570;5.638;2023-07-29T11:38:16;22.20;61.90
81321;DHT22;70785;52.570;5.638;2023-07-29T11:40:42;22.40;61.50
81321;DHT22;70785;52.570;5.638;2023-07-29T11:43:08;22.50;61.50
81321;DHT22;70785;52.570;5.638;2023-07-29T11:45:35;22.50;61.30
81321;DHT22;70785;52.570;5.638;2023-07-29T11:48:01;22.50;61.20
81321;DHT22;70785;52.570;5.638;2023-07-29T11:50:27;22.40;61.10
81321;DHT22;70785;52.570;5.638;2023-07-29T11:52:54;22.30;61.10
81321;DHT22;70785;52.570;5.638;2023-07-29T11:55:21;22.20;61.30
81321;DHT22;70785;52.570;5.638;2023-07-29T11:57:50;22.10;61.30
81321;DHT22;70785;52.570;5.638;2023-07-29T12:00:17;22.10;61.40
81321;DHT22;70785;52.570;5.638;2023-07-29T12:02:44;22.10;61.50
81321;DHT22;70785;52.570;5.638;2023-07-29T12:05:12;22.00;61.50
81321;DHT22;70785;52.570;5.638;2023-07-29T12:07:39;22.00;61.40
81321;DHT22;70785;52.570;5.638;2023-07-29T12:10:06;22.00;61.50
81321;DHT22;70785;52.570;5.638;2023-07-29T12:12:32;22.00;61.10
81321;DHT22;70785;52.570;5.638;2023-07-29T12:14:58;22.00;60.70
81321;DHT22;70785;52.570;5.638;2023-07-29T12:17:24;22.20;60.40
81321;DHT22;70785;52.570;5.638;2023-07-29T12:19:54;22.40;60.30
81321;DHT22;70785;52.570;5.638;2023-07-29T12:22:20;22.50;60.20
81321;DHT22;70785;52.570;5.638;2023-07-29T12:24:46;22.50;60.50
81321;DHT22;70785;52.570;5.638;2023-07-29T12:27:14;22.50;60.60
81321;DHT22;70785;52.570;5.638;2023-07-29T12:29:44;22.50;60.70
81321;DHT22;70785;52.570;5.638;2023-07-29T12:32:12;22.40;60.70
81321;DHT22;70785;52.570;5.638;2023-07-29T12:34:39;22.50;60.80
81321;DHT22;70785;52.570;5.638;2023-07-29T12:37:05;22.50;60.80
81321;DHT22;70785;52.570;5.638;2023-07-29T12:39:33;22.50;60.60
81321;DHT22;70785;52.570;5.638;2023-07-29T12:42:01;22.50;60.80
81321;DHT22;70785;52.570;5.638;2023-07-29T12:44:31;22.60;60.80
81321;DHT22;70785;52.570;5.638;2023-07-29T12:47:00;22.60;60.90
81321;DHT22;70785;52.570;5.638;2023-07-29T12:49:26;22.50;61.10
81321;DHT22;70785;52.570;5.638;2023-07-29T12:51:54;22.30;61.20
81321;DHT22;70785;52.570;5.638;2023-07-29T12:54:20;22.10;61.30
81321;DHT22;70785;52.570;5.638;2023-07-29T12:56:46;22.00;61.50
81321;DHT22;70785;52.570;5.638;2023-07-29T12:59:12;21.90;61.80
81321;DHT22;70785;52.570;5.638;2023-07-29T13:01:38;21.90;62.10
81321;DHT22;70785;52.570;5.638;2023-07-29T13:04:04;21.90;62.30
81321;DHT22;70785;52.570;5.638;2023-07-29T13:06:31;21.90;62.70
81321;DHT22;70785;52.570;5.638;2023-07-29T13:08:57;21.70;63.00
81321;DHT22;70785;52.570;5.638;2023-07-29T13:11:23;21.50;63.20
81321;DHT22;70785;52.570;5.638;2023-07-29T13:13:49;21.50;63.60
81321;DHT22;70785;52.570;5.638;2023-07-29T13:16:15;21.50;63.80
81321;DHT22;70785;52.570;5.638;2023-07-29T13:18:43;21.50;63.90
81321;DHT22;70785;52.570;5.638;2023-07-29T13:21:10;21.70;64.30
81321;DHT22;70785;52.570;5.638;2023-07-29T13:23:36;21.70;64.40
81321;DHT22;70785;52.570;5.638;2023-07-29T13:26:02;21.60;64.60
81321;DHT22;70785;52.570;5.638;2023-07-29T13:28:28;21.50;65.10
81321;DHT22;70785;52.570;5.638;2023-07-29T13:30:54;21.50;65.20
81321;DHT22;70785;52.570;5.638;2023-07-29T13:33:20;21.80;65.30
81321;DHT22;70785;52.570;5.638;2023-07-29T13:35:47;21.90;65.20
81321;DHT22;70785;52.570;5.638;2023-07-29T13:38:13;22.00;65.50
81321;DHT22;70785;52.570;5.638;2023-07-29T13:40:39;22.20;65.50
81321;DHT22;70785;52.570;5.638;2023-07-29T13:43:05;22.40;65.30
81321;DHT22;70785;52.570;5.638;2023-07-29T13:45:31;22.50;65.10
81321;DHT22;70785;52.570;5.638;2023-07-29T13:47:57;22.60;64.50
81321;DHT22;70785;52.570;5.638;2023-07-29T13:50:24;22.70;64.40
81321;DHT22;70785;52.570;5.638;2023-07-29T13:52:50;22.90;64.20
81321;DHT22;70785;52.570;5.638;2023-07-29T13:55:16;23.10;63.90
81321;DHT22;70785;52.570;5.638;2023-07-29T13:57:42;23.20;63.70
81321;DHT22;70785;52.570;5.638;2023-07-29T14:00:08;23.50;63.10
81321;DHT22;70785;52.570;5.638;2023-07-29T14:02:40;23.60;62.40
81321;DHT22;70785;52.570;5.638;2023-07-29T14:05:07;23.60;62.30
81321;DHT22;70785;52.570;5.638;2023-07-29T14:07:33;23.60;62.00
81321;DHT22;70785;52.570;5.638;2023-07-29T14:09:59;23.80;62.20
81321;DHT22;70785;52.570;5.638;2023-07-29T14:12:25;24.20;61.90
81321;DHT22;70785;52.570;5.638;2023-07-29T14:14:51;24.70;60.90
81321;DHT22;70785;52.570;5.638;2023-07-29T14:17:17;25.00;60.10
81321;DHT22;70785;52.570;5.638;2023-07-29T14:19:44;25.20;59.60
81321;DHT22;70785;52.570;5.638;2023-07-29T14:22:10;25.50;59.00
81321;DHT22;70785;52.570;5.638;2023-07-29T14:24:36;25.70;58.70
81321;DHT22;70785;52.570;5.638;2023-07-29T14:27:02;26.00;58.50
81321;DHT22;70785;52.570;5.638;2023-07-29T14:29:29;26.40;58.10
81321;DHT22;70785;52.570;5.638;2023-07-29T14:31:55;26.60;57.60
81321;DHT22;70785;52.570;5.638;2023-07-29T14:34:21;26.90;56.90
81321;DHT22;70785;52.570;5.638;2023-07-29T14:36:47;26.90;56.30
81321;DHT22;70785;52.570;5.638;2023-07-29T14:39:13;26.80;56.10
81321;DHT22;70785;52.570;5.638;2023-07-29T14:41:39;26.70;56.00
81321;DHT22;70785;52.570;5.638;2023-07-29T14:44:05;26.70;55.40
81321;DHT22;70785;52.570;5.638;2023-07-29T14:46:31;26.40;55.70
81321;DHT22;70785;52.570;5.638;2023-07-29T14:48:58;26.40;56.00
81321;DHT22;70785;52.570;5.638;2023-07-29T14:51:24;26.60;55.80
81321;DHT22;70785;52.570;5.638;2023-07-29T14:53:50;26.70;55.40
81321;DHT22;70785;52.570;5.638;2023-07-29T14:56:16;27.00;55.20
81321;DHT22;70785;52.570;5.638;2023-07-29T14:58:44;27.10;54.60
81321;DHT22;70785;52.570;5.638;2023-07-29T15:01:10;27.20;54.30
81321;DHT22;70785;52.570;5.638;2023-07-29T15:03:36;27.20;54.20
81321;DHT22;70785;52.570;5.638;2023-07-29T15:06:02;27.20;54.10
81321;DHT22;70785;52.570;5.638;2023-07-29T15:08:29;27.10;54.00
81321;DHT22;70785;52.570;5.638;2023-07-29T15:10:55;27.00;53.90
81321;DHT22;70785;52.570;5.638;2023-07-29T15:13:21;26.90;53.40
81321;DHT22;70785;52.570;5.638;2023-07-29T15:15:47;26.70;53.40
81321;DHT22;70785;52.570;5.638;2023-07-29T15:18:15;26.80;53.60
81321;DHT22;70785;52.570;5.638;2023-07-29T15:20:41;26.90;53.50
81321;DHT22;70785;52.570;5.638;2023-07-29T15:23:08;26.90;53.00
81321;DHT22;70785;52.570;5.638;2023-07-29T15:25:34;26.90;53.10
81321;DHT22;70785;52.570;5.638;2023-07-29T15:28:00;27.10;53.00
81321;DHT22;70785;52.570;5.638;2023-07-29T15:30:26;27.10;53.00
81321;DHT22;70785;52.570;5.638;2023-07-29T15:32:52;27.10;52.80
81321;DHT22;70785;52.570;5.638;2023-07-29T15:35:21;27.20;52.60
81321;DHT22;70785;52.570;5.638;2023-07-29T15:37:47;27.10;52.60